Terminal Aerodrome Forecast
Issued by NWS

Home | Current Version | Previous Version | Graphics & Text | Print | Product List | Glossary On
Versions: 1 2 3 4 5 6 7 8 9 10 11 12 13 14 15
000
FTUS43 KGRB 301120
TAFRHI
TAF
KRHI 301120Z 3012/3112 27007KT P6SM SKC
     FM302200 23005KT P6SM SCT090
     FM310200 18003KT P6SM SCT090
     FM310800 15004KT P6SM VCSH BKN080
      TEMPO 3110/3112 -SHRA OVC050=

USA.gov is the U.S. government's official web portal to all federal, state and local government web resources and services.